createdAt,value
2017-03-28T00:06:20.892Z,0
2017-03-28T00:16:20.962Z,0
2017-03-28T00:26:21.249Z,0
2017-03-28T00:36:20.987Z,0
2017-03-28T00:46:20.969Z,0
2017-03-28T00:56:21.015Z,0
2017-03-28T01:06:20.977Z,0
2017-03-28T01:16:20.926Z,0
2017-03-28T01:26:20.986Z,0
2017-03-28T01:36:20.956Z,0
2017-03-28T01:46:21.011Z,0
2017-03-28T01:56:20.966Z,0
2017-03-28T02:06:21.074Z,0
2017-03-28T02:16:22.152Z,0
2017-03-28T02:26:21.095Z,0
2017-03-28T02:36:21.046Z,0
2017-03-28T02:46:21.094Z,0
2017-03-28T02:56:21.071Z,0
2017-03-28T03:06:21.037Z,0
2017-03-28T03:16:21.373Z,0
2017-03-28T03:26:21.010Z,0
2017-03-28T03:36:21.108Z,0
2017-03-28T03:46:21.074Z,0
2017-03-28T03:56:21.113Z,0
2017-03-28T04:06:21.087Z,0
2017-03-28T04:16:21.146Z,0
2017-03-28T04:26:21.100Z,0
2017-03-28T04:36:21.183Z,0
2017-03-28T04:46:21.124Z,0
2017-03-28T04:56:21.087Z,0
2017-03-28T05:06:21.161Z,0
2017-03-28T05:16:21.106Z,10
2017-03-28T05:26:21.182Z,20
2017-03-28T05:36:21.138Z,30
2017-03-28T05:46:21.196Z,45
2017-03-28T05:56:21.189Z,60
2017-03-28T06:06:21.234Z,70
2017-03-28T06:16:21.194Z,80
2017-03-28T06:26:21.240Z,90
2017-03-28T06:36:21.212Z,100
2017-03-28T06:46:21.295Z,110
2017-03-28T06:56:21.263Z,115
2017-03-28T07:06:21.302Z,120
2017-03-28T07:16:21.304Z,125
2017-03-28T07:26:21.234Z,135
2017-03-28T07:36:21.314Z,140
2017-03-28T07:46:21.269Z,145
2017-03-28T07:56:21.399Z,150
2017-03-28T08:06:21.336Z,155
2017-03-28T08:16:21.266Z,155
2017-03-28T08:26:21.243Z,160
2017-03-28T08:36:21.267Z,160
2017-03-28T08:46:21.271Z,160
2017-03-28T08:56:21.271Z,160
2017-03-28T09:06:21.293Z,160
2017-03-28T09:16:21.319Z,160
2017-03-28T09:26:21.325Z,160
2017-03-28T09:36:21.314Z,155
2017-03-28T09:46:21.332Z,155
2017-03-28T09:56:21.349Z,155
2017-03-28T10:06:21.400Z,150
2017-03-28T10:16:21.350Z,150
2017-03-28T10:26:21.368Z,145
2017-03-28T10:36:21.384Z,145
2017-03-28T10:46:21.416Z,145
2017-03-28T10:56:21.397Z,145
2017-03-28T11:06:21.443Z,140
2017-03-28T11:16:21.438Z,140
2017-03-28T11:26:21.464Z,140
2017-03-28T11:36:21.456Z,140
2017-03-28T11:46:21.458Z,140
2017-03-28T11:56:21.484Z,140
2017-03-28T12:06:21.467Z,135
2017-03-28T12:16:21.513Z,135
2017-03-28T12:26:21.491Z,135
2017-03-28T12:36:21.472Z,135
2017-03-28T12:46:21.524Z,135
2017-03-28T12:56:21.479Z,135
2017-03-28T13:06:21.491Z,135
2017-03-28T13:16:21.512Z,135
2017-03-28T13:26:21.518Z,135
2017-03-28T13:36:21.501Z,135
2017-03-28T13:46:21.486Z,135
2017-03-28T13:56:21.497Z,135
2017-03-28T14:06:21.486Z,135
2017-03-28T14:16:21.545Z,135
2017-03-28T14:26:21.608Z,125
2017-03-28T14:36:21.618Z,125
2017-03-28T14:46:21.538Z,120
2017-03-28T14:56:21.564Z,120
2017-03-28T15:06:21.588Z,125
2017-03-28T15:16:21.495Z,120
2017-03-28T15:26:21.554Z,115
2017-03-28T15:46:21.608Z,110
2017-03-28T15:56:22.401Z,115
2017-03-28T16:06:21.529Z,110
2017-03-28T16:16:21.575Z,105
2017-03-28T16:26:21.577Z,95
2017-03-28T16:36:21.596Z,80
2017-03-28T16:46:21.574Z,70
2017-03-28T16:56:21.537Z,55
2017-03-28T17:06:22.133Z,55
2017-03-28T17:16:22.504Z,45
2017-03-28T17:26:21.674Z,35
2017-03-28T17:36:21.684Z,25
2017-03-28T17:46:21.575Z,15
2017-03-28T17:56:22.246Z,5
2017-03-28T18:06:21.548Z,0
2017-03-28T18:16:21.784Z,0
2017-03-28T18:26:23.300Z,0
2017-03-28T18:36:21.955Z,0
2017-03-28T18:46:22.530Z,0
2017-03-28T18:56:23.077Z,0
2017-03-28T19:06:22.584Z,0
2017-03-28T19:16:23.264Z,0
2017-03-28T19:26:25.246Z,0
2017-03-28T19:36:30.177Z,0
2017-03-28T19:46:22.299Z,0
2017-03-28T19:56:22.663Z,0
2017-03-28T20:06:22.759Z,0
2017-03-28T20:16:22.362Z,0
2017-03-28T20:26:21.619Z,0
2017-03-28T20:36:21.997Z,0
2017-03-28T20:46:21.658Z,0
2017-03-28T20:56:21.805Z,0
2017-03-28T21:06:25.153Z,0
2017-03-28T21:16:23.578Z,0
2017-03-28T21:26:22.568Z,0
2017-03-28T21:36:21.708Z,0
2017-03-28T21:46:21.574Z,0
2017-03-28T21:56:21.699Z,0
2017-03-28T22:06:21.624Z,0
2017-03-28T22:16:21.593Z,0
2017-03-28T22:26:21.682Z,0
2017-03-28T22:36:21.584Z,0
2017-03-28T22:46:21.636Z,0
2017-03-28T22:56:21.602Z,0
2017-03-28T23:06:21.539Z,0
2017-03-28T23:16:21.593Z,0
2017-03-28T23:26:21.555Z,0
2017-03-28T23:36:21.649Z,0
2017-03-28T23:46:21.601Z,0
2017-03-28T23:56:21.561Z,0
